createdAt,value
2019-02-21T00:01:57.711Z,22.70
2019-02-21T00:04:27.264Z,22.63
2019-02-21T00:06:57.653Z,22.66
2019-02-21T00:09:27.110Z,22.71
2019-02-21T00:11:57.156Z,22.72
2019-02-21T00:14:26.724Z,22.62
2019-02-21T00:16:57.000Z,22.58
2019-02-21T00:19:29.847Z,22.61
2019-02-21T00:21:59.657Z,22.46
2019-02-21T00:24:31.039Z,22.44
2019-02-21T00:27:01.605Z,22.42
2019-02-21T00:29:31.135Z,22.32
2019-02-21T00:32:00.975Z,22.23
2019-02-21T00:34:30.513Z,22.15
2019-02-21T00:37:02.482Z,22.07
2019-02-21T00:39:32.012Z,22.03
2019-02-21T00:42:02.825Z,22.01
2019-02-21T00:44:34.260Z,21.96
2019-02-21T00:47:03.965Z,21.96
2019-02-21T00:49:33.543Z,22.33
2019-02-21T00:52:03.150Z,22.33
2019-02-21T00:54:33.578Z,22.28
2019-02-21T00:57:03.099Z,22.32
2019-02-21T00:59:32.925Z,22.31
2019-02-21T01:02:03.796Z,22.25
2019-02-21T01:04:33.313Z,22.21
2019-02-21T01:07:04.859Z,22.13
2019-02-21T01:09:34.413Z,22.09
2019-02-21T01:12:05.082Z,21.99
2019-02-21T01:14:35.662Z,21.96
2019-02-21T01:17:05.185Z,21.87
2019-02-21T01:19:34.701Z,21.83
2019-02-21T01:22:04.566Z,21.73
2019-02-21T01:24:34.071Z,21.68
2019-02-21T01:27:03.640Z,21.64
2019-02-21T01:29:33.111Z,21.65
2019-02-21T01:32:02.714Z,21.59
2019-02-21T01:34:32.153Z,21.58
2019-02-21T01:37:01.619Z,21.53
2019-02-21T01:39:31.093Z,21.53
2019-02-21T01:42:00.608Z,21.53
2019-02-21T01:44:30.067Z,21.52
2019-02-21T01:46:59.600Z,21.51
2019-02-21T01:49:29.047Z,21.48
2019-02-21T01:51:58.513Z,21.52
2019-02-21T01:54:28.034Z,21.51
2019-02-21T01:56:57.589Z,21.45
2019-02-21T01:59:27.060Z,21.44
2019-02-21T02:01:56.609Z,21.43
2019-02-21T02:04:26.145Z,21.45
2019-02-21T02:06:55.646Z,21.43
2019-02-21T02:09:25.267Z,21.39
2019-02-21T02:11:54.744Z,21.33
2019-02-21T02:14:24.195Z,21.26
2019-02-21T02:16:53.714Z,21.19
2019-02-21T02:19:23.216Z,21.11
2019-02-21T02:21:52.663Z,21.05
2019-02-21T02:24:22.139Z,21.08
2019-02-21T02:26:51.604Z,21.04
2019-02-21T02:29:21.990Z,21.03
2019-02-21T02:31:51.505Z,20.98
2019-02-21T02:34:21.014Z,21.11
2019-02-21T02:36:50.440Z,21.12
2019-02-21T02:39:20.006Z,21.16
2019-02-21T02:41:49.438Z,21.16
2019-02-21T02:44:18.875Z,21.15
2019-02-21T02:46:48.363Z,21.14
2019-02-21T02:49:17.840Z,21.12
2019-02-21T02:51:47.439Z,21.15
2019-02-21T02:54:16.868Z,21.17
2019-02-21T02:56:46.352Z,21.08
2019-02-21T02:59:15.877Z,21.13
2019-02-21T03:01:45.482Z,21.11
2019-02-21T03:04:14.962Z,21.05
2019-02-21T03:06:44.483Z,21.01
2019-02-21T03:09:14.031Z,21.02
2019-02-21T03:11:43.489Z,20.98
2019-02-21T03:14:12.971Z,20.92
2019-02-21T03:16:42.473Z,20.95
2019-02-21T03:19:11.957Z,21.00
2019-02-21T03:21:41.485Z,20.98
2019-02-21T03:24:11.165Z,20.96
2019-02-21T03:26:40.631Z,20.95
2019-02-21T03:29:10.215Z,20.97
2019-02-21T03:31:53.586Z,20.96
2019-02-21T03:34:10.906Z,20.97
2019-02-21T03:36:40.438Z,20.97
2019-02-21T03:39:09.891Z,20.94
2019-02-21T03:41:39.588Z,20.99
2019-02-21T03:44:09.079Z,21.02
2019-02-21T03:46:38.521Z,21.01
2019-02-21T03:49:08.896Z,20.93
2019-02-21T03:51:38.340Z,20.95
2019-02-21T03:54:08.020Z,20.91
2019-02-21T03:56:37.470Z,20.90
2019-02-21T03:59:06.945Z,20.90
2019-02-21T04:01:36.528Z,20.87
2019-02-21T04:04:06.014Z,20.86
2019-02-21T04:06:35.593Z,20.92
2019-02-21T04:09:08.441Z,20.87
2019-02-21T04:11:37.924Z,20.83
2019-02-21T04:14:07.467Z,20.78
2019-02-21T04:16:36.921Z,20.75
2019-02-21T04:19:06.398Z,20.76
2019-02-21T04:21:35.968Z,20.71
2019-02-21T04:24:05.437Z,20.73
2019-02-21T04:26:34.931Z,20.75
2019-02-21T04:29:04.486Z,20.72
2019-02-21T04:31:34.089Z,20.71
2019-02-21T04:34:03.553Z,20.71
2019-02-21T04:36:33.105Z,20.72
2019-02-21T04:39:02.730Z,20.75
2019-02-21T04:41:32.201Z,20.75
2019-02-21T04:44:03.825Z,20.77
2019-02-21T04:46:32.911Z,20.82
2019-02-21T04:49:02.423Z,20.84
2019-02-21T04:51:32.169Z,20.83
2019-02-21T04:54:02.819Z,20.86
2019-02-21T04:56:33.647Z,20.87
2019-02-21T04:59:06.725Z,20.87
2019-02-21T05:01:36.324Z,20.83
2019-02-21T05:04:05.991Z,20.80
2019-02-21T05:06:35.433Z,20.80
2019-02-21T05:09:07.532Z,20.77
2019-02-21T05:11:37.078Z,20.73
2019-02-21T05:14:06.550Z,20.74
2019-02-21T05:16:36.226Z,20.71
2019-02-21T05:19:05.705Z,20.64
2019-02-21T05:21:35.429Z,20.63
2019-02-21T05:24:04.881Z,20.65
2019-02-21T05:26:47.408Z,20.66
2019-02-21T05:29:16.880Z,20.65
2019-02-21T05:32:08.108Z,20.65
2019-02-21T05:35:02.094Z,20.65
2019-02-21T05:37:43.530Z,20.71
2019-02-21T05:40:28.553Z,20.69
2019-02-21T05:43:37.249Z,20.72
2019-02-21T05:46:36.276Z,20.72
2019-02-21T05:49:13.427Z,20.71
2019-02-21T05:51:50.066Z,20.69
2019-02-21T05:54:50.649Z,20.71
2019-02-21T05:57:37.353Z,20.68
2019-02-21T06:00:24.539Z,20.69
2019-02-21T06:02:58.508Z,20.63
2019-02-21T06:05:37.386Z,20.65
2019-02-21T06:08:25.729Z,20.65
2019-02-21T06:11:19.869Z,20.68
2019-02-21T06:14:08.577Z,20.73
2019-02-21T06:17:06.011Z,20.79
2019-02-21T06:19:52.541Z,20.77
2019-02-21T06:22:37.829Z,20.78
2019-02-21T06:25:12.013Z,20.75
2019-02-21T06:27:55.273Z,20.75
2019-02-21T06:30:32.928Z,20.77
2019-02-21T06:33:05.379Z,20.81
2019-02-21T06:35:33.676Z,20.79
2019-02-21T06:38:03.176Z,20.80
2019-02-21T06:40:32.800Z,20.80
2019-02-21T06:43:02.331Z,20.77
2019-02-21T06:45:31.868Z,20.82
2019-02-21T06:48:01.387Z,20.77
2019-02-21T06:50:30.899Z,20.73
2019-02-21T06:53:00.360Z,20.70
2019-02-21T06:55:29.870Z,20.71
2019-02-21T06:57:59.320Z,20.67
2019-02-21T07:00:28.799Z,20.68
2019-02-21T07:02:58.267Z,20.64
2019-02-21T07:05:27.757Z,20.70
2019-02-21T07:07:57.210Z,20.70
2019-02-21T07:10:26.715Z,20.70
2019-02-21T07:12:56.153Z,20.68
2019-02-21T07:15:25.644Z,20.64
2019-02-21T07:17:55.155Z,20.64
2019-02-21T07:20:24.738Z,20.64
2019-02-21T07:22:54.214Z,20.67
2019-02-21T07:25:42.557Z,20.67
2019-02-21T07:28:15.596Z,20.72
2019-02-21T07:30:43.470Z,20.73
2019-02-21T07:33:12.950Z,20.75
2019-02-21T07:35:42.498Z,20.78
2019-02-21T07:38:12.307Z,20.75
2019-02-21T07:40:41.813Z,20.83
2019-02-21T07:43:12.896Z,21.39
2019-02-21T07:45:42.557Z,21.86
2019-02-21T07:48:12.079Z,22.68
2019-02-21T07:50:42.516Z,23.32
2019-02-21T07:53:14.234Z,24.04
2019-02-21T07:55:43.719Z,24.49
2019-02-21T07:58:13.274Z,24.53
2019-02-21T08:00:42.741Z,24.82
2019-02-21T08:03:12.234Z,24.96
2019-02-21T08:05:41.712Z,24.91
2019-02-21T08:08:11.300Z,25.10
2019-02-21T08:10:40.810Z,25.20
2019-02-21T08:13:10.318Z,25.53
2019-02-21T08:15:39.859Z,25.52
2019-02-21T08:18:09.552Z,25.25
2019-02-21T08:20:41.019Z,25.32
2019-02-21T08:23:11.109Z,25.51
2019-02-21T08:25:40.790Z,25.17
2019-02-21T08:28:10.309Z,24.94
2019-02-21T08:30:39.783Z,24.82
2019-02-21T08:33:22.837Z,24.61
2019-02-21T08:35:54.082Z,24.33
2019-02-21T08:38:23.851Z,24.03
2019-02-21T08:40:53.572Z,23.86
2019-02-21T08:43:23.081Z,23.83
2019-02-21T08:45:52.651Z,23.69
2019-02-21T08:48:22.124Z,23.59
2019-02-21T08:50:51.603Z,23.49
2019-02-21T08:53:21.070Z,23.42
2019-02-21T08:55:50.603Z,23.28
2019-02-21T08:58:20.080Z,23.16
2019-02-21T09:00:49.645Z,23.06
2019-02-21T09:03:19.969Z,23.00
2019-02-21T09:05:49.455Z,22.83
2019-02-21T09:08:18.948Z,22.79
2019-02-21T09:10:48.455Z,22.76
2019-02-21T09:13:17.941Z,22.64
2019-02-21T09:15:47.446Z,22.58
2019-02-21T09:18:16.931Z,22.46
2019-02-21T09:20:47.851Z,22.39
2019-02-21T09:23:17.491Z,22.32
2019-02-21T09:25:49.523Z,22.29
2019-02-21T09:28:18.132Z,22.24
2019-02-21T09:30:47.669Z,22.23
2019-02-21T09:33:18.993Z,22.21
2019-02-21T09:35:48.302Z,22.19
2019-02-21T09:38:17.846Z,22.14
2019-02-21T09:40:47.317Z,22.05
2019-02-21T09:43:16.823Z,21.97
2019-02-21T09:45:46.290Z,21.93
2019-02-21T09:48:15.767Z,21.86
2019-02-21T09:50:45.267Z,21.79
2019-02-21T09:53:15.626Z,21.79
2019-02-21T09:55:45.053Z,21.71
2019-02-21T09:58:15.648Z,21.63
2019-02-21T10:00:45.115Z,21.58
2019-02-21T10:03:14.576Z,21.53
2019-02-21T10:05:44.072Z,21.51
2019-02-21T10:08:13.551Z,21.42
2019-02-21T10:10:43.055Z,21.32
2019-02-21T10:13:13.386Z,21.27
2019-02-21T10:15:44.171Z,21.17
2019-02-21T10:18:14.481Z,21.14
2019-02-21T10:20:43.990Z,21.13
2019-02-21T10:23:13.594Z,21.12
2019-02-21T10:25:43.532Z,21.10
2019-02-21T10:28:13.054Z,21.00
2019-02-21T10:30:42.516Z,20.98
2019-02-21T10:33:12.026Z,20.93
2019-02-21T10:35:41.754Z,20.87
2019-02-21T10:38:11.617Z,20.85
2019-02-21T10:40:41.077Z,20.81
2019-02-21T10:43:10.577Z,20.79
2019-02-21T10:45:47.434Z,20.75
2019-02-21T10:48:11.247Z,20.70
2019-02-21T10:50:40.766Z,20.68
2019-02-21T10:53:10.250Z,20.63
2019-02-21T10:55:39.807Z,20.62
2019-02-21T10:58:09.364Z,20.67
2019-02-21T11:00:38.948Z,20.61
2019-02-21T11:03:08.481Z,20.60
2019-02-21T11:05:37.966Z,20.62
2019-02-21T11:08:07.522Z,20.65
2019-02-21T11:10:36.989Z,20.62
2019-02-21T11:13:06.519Z,20.61
2019-02-21T11:15:36.003Z,20.60
2019-02-21T11:18:05.679Z,20.59
2019-02-21T11:20:35.196Z,20.55
2019-02-21T11:23:06.481Z,20.51
2019-02-21T11:25:35.870Z,20.48
2019-02-21T11:28:05.487Z,20.45
2019-02-21T11:30:34.943Z,20.47
2019-02-21T11:33:04.435Z,20.43
2019-02-21T11:35:33.944Z,20.37
2019-02-21T11:38:03.493Z,20.33
2019-02-21T11:40:33.079Z,20.25
2019-02-21T11:43:02.830Z,20.19
2019-02-21T11:45:33.410Z,20.15
2019-02-21T11:48:02.937Z,20.13
2019-02-21T11:50:33.676Z,20.09
2019-02-21T11:53:03.204Z,20.07
2019-02-21T11:55:32.720Z,20.04
2019-02-21T11:58:02.516Z,20.02
2019-02-21T12:00:32.157Z,20.00
2019-02-21T12:03:01.660Z,19.99
2019-02-21T12:05:32.191Z,19.98
2019-02-21T12:08:01.878Z,19.98
2019-02-21T12:10:31.589Z,19.96
2019-02-21T12:13:01.169Z,19.93
2019-02-21T12:15:30.671Z,19.87
2019-02-21T12:18:00.243Z,19.85
2019-02-21T12:20:29.926Z,19.87
2019-02-21T12:22:59.422Z,19.86
2019-02-21T12:25:29.136Z,19.85
2019-02-21T12:27:58.652Z,19.88
2019-02-21T12:30:28.308Z,19.87
2019-02-21T12:32:57.797Z,19.89
2019-02-21T12:35:29.879Z,19.86
2019-02-21T12:37:59.844Z,19.80
2019-02-21T12:40:29.382Z,19.76
2019-02-21T12:42:58.954Z,19.74
2019-02-21T12:45:30.879Z,19.75
2019-02-21T12:48:00.460Z,19.74
2019-02-21T12:50:29.999Z,19.72
2019-02-21T12:52:59.545Z,19.62
2019-02-21T12:55:31.698Z,19.60
2019-02-21T12:58:00.538Z,19.56
2019-02-21T13:00:30.343Z,19.50
2019-02-21T13:02:59.894Z,19.48
2019-02-21T13:05:40.091Z,19.46
2019-02-21T13:08:01.340Z,19.42
2019-02-21T13:10:30.844Z,19.38
2019-02-21T13:13:00.343Z,19.32
2019-02-21T13:15:29.863Z,19.25
2019-02-21T13:17:59.463Z,19.23
2019-02-21T13:20:28.980Z,19.20
2019-02-21T13:22:58.471Z,19.20
2019-02-21T13:25:28.658Z,19.16
2019-02-21T13:27:58.226Z,19.18
2019-02-21T13:30:27.852Z,19.18
2019-02-21T13:32:57.473Z,19.17
2019-02-21T13:35:29.268Z,19.18
2019-02-21T13:37:58.331Z,19.15
2019-02-21T13:40:27.882Z,19.14
2019-02-21T13:42:57.439Z,19.11
2019-02-21T13:45:27.008Z,19.12
2019-02-21T13:47:56.555Z,19.19
2019-02-21T13:50:26.208Z,19.17
2019-02-21T13:52:55.772Z,19.19
2019-02-21T13:55:25.251Z,19.23
2019-02-21T13:57:54.749Z,19.22
2019-02-21T14:00:24.678Z,19.23
2019-02-21T14:02:54.198Z,19.20
2019-02-21T14:05:23.740Z,19.17
2019-02-21T14:07:53.313Z,19.16
2019-02-21T14:10:22.826Z,19.11
2019-02-21T14:12:52.367Z,19.09
2019-02-21T14:15:23.588Z,19.13
2019-02-21T14:17:53.118Z,19.14
2019-02-21T14:20:23.200Z,19.10
2019-02-21T14:22:52.751Z,19.07
2019-02-21T14:25:22.771Z,19.03
2019-02-21T14:27:52.417Z,18.99
2019-02-21T14:30:21.980Z,18.97
2019-02-21T14:32:51.491Z,18.95
2019-02-21T14:35:21.045Z,18.94
2019-02-21T14:37:50.543Z,18.89
2019-02-21T14:40:20.025Z,18.86
2019-02-21T14:42:49.965Z,18.84
2019-02-21T14:45:19.516Z,18.79
2019-02-21T14:47:49.125Z,18.76
2019-02-21T14:50:20.532Z,18.72
2019-02-21T14:52:50.080Z,18.72
2019-02-21T14:55:20.153Z,18.68
2019-02-21T14:57:49.635Z,18.67
2019-02-21T15:00:21.341Z,18.67
2019-02-21T15:02:50.964Z,18.66
2019-02-21T15:05:21.450Z,18.70
2019-02-21T15:07:51.000Z,18.71
2019-02-21T15:10:20.570Z,18.74
2019-02-21T15:12:50.080Z,18.73
2019-02-21T15:15:21.841Z,18.71
2019-02-21T15:17:51.163Z,18.72
2019-02-21T15:20:20.663Z,18.71
2019-02-21T15:22:50.236Z,18.68
2019-02-21T15:25:19.770Z,18.68
2019-02-21T15:27:49.320Z,18.66
2019-02-21T15:30:19.740Z,18.71
2019-02-21T15:32:49.540Z,18.71
2019-02-21T15:35:19.730Z,18.69
2019-02-21T15:37:49.510Z,18.69
2019-02-21T15:40:19.037Z,18.69
2019-02-21T15:42:48.541Z,18.64
2019-02-21T15:45:23.436Z,18.67
2019-02-21T15:47:51.331Z,18.71
2019-02-21T15:50:22.523Z,18.67
2019-02-21T15:52:52.225Z,18.66
2019-02-21T15:55:22.680Z,18.66
2019-02-21T15:58:03.453Z,18.64
2019-02-21T16:00:23.543Z,18.60
2019-02-21T16:02:53.144Z,18.62
2019-02-21T16:05:22.690Z,18.61
2019-02-21T16:07:52.200Z,18.67
2019-02-21T16:10:22.511Z,19.37
2019-02-21T16:12:52.403Z,19.73
2019-02-21T16:15:22.249Z,19.89
2019-02-21T16:17:51.980Z,19.92
2019-02-21T16:20:21.775Z,19.97
2019-02-21T16:22:51.275Z,20.08
2019-02-21T16:25:21.487Z,20.25
2019-02-21T16:27:51.059Z,20.49
2019-02-21T16:30:22.142Z,20.61
2019-02-21T16:32:51.862Z,20.70
2019-02-21T16:35:21.368Z,20.92
2019-02-21T16:37:50.886Z,20.98
2019-02-21T16:40:20.541Z,21.18
2019-02-21T16:42:50.334Z,21.26
2019-02-21T16:45:19.959Z,21.39
2019-02-21T16:47:49.506Z,21.43
2019-02-21T16:50:29.443Z,21.54
2019-02-21T16:52:50.372Z,21.53
2019-02-21T16:55:20.235Z,21.35
2019-02-21T16:57:49.758Z,21.23
2019-02-21T17:00:19.577Z,21.03
2019-02-21T17:02:49.154Z,20.86
2019-02-21T17:05:18.690Z,20.74
2019-02-21T17:07:48.248Z,20.62
2019-02-21T17:10:18.040Z,20.49
2019-02-21T17:12:47.819Z,20.46
2019-02-21T17:15:17.347Z,20.72
2019-02-21T17:17:46.852Z,20.77
2019-02-21T17:20:16.635Z,20.71
2019-02-21T17:22:46.119Z,20.60
2019-02-21T17:25:15.964Z,20.39
2019-02-21T17:27:45.566Z,20.32
2019-02-21T17:30:16.505Z,20.31
2019-02-21T17:32:46.187Z,20.15
2019-02-21T17:35:15.681Z,20.02
2019-02-21T17:37:45.346Z,19.93
2019-02-21T17:40:17.506Z,19.78
2019-02-21T17:42:47.011Z,19.70
2019-02-21T17:45:16.575Z,19.61
2019-02-21T17:47:46.119Z,19.52
2019-02-21T17:50:16.027Z,19.49
2019-02-21T17:52:45.641Z,19.36
2019-02-21T17:55:15.614Z,19.37
2019-02-21T17:57:45.232Z,19.82
2019-02-21T18:00:23.450Z,19.83
2019-02-21T18:02:52.957Z,19.77
2019-02-21T18:05:22.518Z,19.68
2019-02-21T18:07:52.034Z,19.63
2019-02-21T18:10:21.604Z,19.58
2019-02-21T18:12:51.212Z,19.54
2019-02-21T18:15:20.863Z,19.50
2019-02-21T18:17:50.351Z,19.43
2019-02-21T18:20:19.857Z,19.35
2019-02-21T18:22:49.455Z,19.31
2019-02-21T18:25:25.430Z,19.28
2019-02-21T18:27:55.137Z,19.44
2019-02-21T18:30:24.901Z,19.83
2019-02-21T18:32:54.440Z,20.13
2019-02-21T18:35:24.013Z,20.48
2019-02-21T18:37:53.941Z,20.72
2019-02-21T18:40:23.662Z,20.86
2019-02-21T18:42:53.341Z,20.91
2019-02-21T18:45:23.083Z,20.96
2019-02-21T18:47:52.628Z,21.01
2019-02-21T18:50:22.189Z,21.02
2019-02-21T18:52:51.828Z,21.04
2019-02-21T18:55:21.502Z,21.05
2019-02-21T18:57:51.171Z,21.06
2019-02-21T19:00:21.891Z,21.01
2019-02-21T19:02:51.592Z,20.98
2019-02-21T19:05:21.142Z,20.98
2019-02-21T19:08:00.410Z,21.15
2019-02-21T19:10:22.220Z,21.69
2019-02-21T19:12:51.773Z,22.02
2019-02-21T19:15:21.669Z,22.49
2019-02-21T19:17:51.246Z,22.93
2019-02-21T19:20:21.006Z,22.96
2019-02-21T19:22:51.011Z,23.01
2019-02-21T19:25:21.633Z,23.30
2019-02-21T19:27:51.271Z,23.73
2019-02-21T19:30:25.952Z,23.67
2019-02-21T19:32:56.750Z,23.62
2019-02-21T19:35:26.480Z,23.41
2019-02-21T19:37:56.351Z,23.32
2019-02-21T19:40:26.053Z,23.36
2019-02-21T19:42:56.725Z,23.52
2019-02-21T19:45:28.733Z,23.50
2019-02-21T19:47:58.607Z,23.39
2019-02-21T19:50:28.793Z,23.37
2019-02-21T19:52:58.376Z,23.34
2019-02-21T19:55:28.061Z,23.30
2019-02-21T19:57:57.905Z,23.30
2019-02-21T20:00:27.629Z,23.15
2019-02-21T20:02:57.350Z,22.99
2019-02-21T20:05:27.754Z,22.96
2019-02-21T20:08:07.801Z,22.82
2019-02-21T20:10:28.708Z,22.74
2019-02-21T20:13:01.358Z,22.61
2019-02-21T20:15:31.127Z,22.52
2019-02-21T20:18:01.045Z,22.45
2019-02-21T20:20:30.865Z,22.33
2019-02-21T20:23:00.475Z,22.24
2019-02-21T20:25:30.343Z,22.17
2019-02-21T20:28:00.250Z,22.04
2019-02-21T20:30:30.158Z,21.93
2019-02-21T20:32:59.780Z,21.77
2019-02-21T20:35:29.401Z,21.84
2019-02-21T20:37:59.182Z,22.37
2019-02-21T20:40:28.970Z,22.59
2019-02-21T20:42:58.653Z,22.72
2019-02-21T20:45:28.334Z,23.14
2019-02-21T20:47:57.937Z,23.35
2019-02-21T20:50:30.240Z,23.35
2019-02-21T20:52:59.794Z,23.11
2019-02-21T20:55:29.353Z,22.98
2019-02-21T20:57:59.381Z,22.80
2019-02-21T21:00:28.910Z,22.65
2019-02-21T21:02:58.439Z,22.55
2019-02-21T21:05:28.219Z,22.38
2019-02-21T21:07:57.905Z,22.31
2019-02-21T21:10:27.710Z,22.19
2019-02-21T21:12:57.304Z,22.07
2019-02-21T21:15:26.883Z,22.00
2019-02-21T21:17:56.417Z,21.91
2019-02-21T21:20:26.221Z,21.86
2019-02-21T21:22:55.903Z,21.82
2019-02-21T21:25:25.895Z,21.78
2019-02-21T21:27:55.621Z,21.69
2019-02-21T21:30:25.171Z,21.68
2019-02-21T21:32:54.755Z,21.67
2019-02-21T21:35:24.346Z,21.64
2019-02-21T21:37:53.980Z,21.58
2019-02-21T21:40:23.512Z,21.54
2019-02-21T21:42:53.030Z,21.47
2019-02-21T21:45:22.876Z,21.45
2019-02-21T21:47:52.396Z,21.39
2019-02-21T21:50:22.054Z,21.32
2019-02-21T21:52:51.568Z,21.27
2019-02-21T21:55:21.131Z,21.16
2019-02-21T21:57:50.628Z,21.09
2019-02-21T22:00:21.727Z,21.02
2019-02-21T22:02:51.681Z,20.93
2019-02-21T22:05:21.271Z,20.91
2019-02-21T22:07:50.855Z,20.84
2019-02-21T22:10:20.345Z,20.78
2019-02-21T22:12:49.957Z,20.74
2019-02-21T22:15:19.515Z,20.73
2019-02-21T22:17:49.146Z,20.76
2019-02-21T22:20:19.014Z,21.34
2019-02-21T22:22:48.606Z,22.07
2019-02-21T22:25:22.230Z,22.81
2019-02-21T22:27:52.169Z,23.29
2019-02-21T22:30:21.763Z,23.51
2019-02-21T22:32:51.331Z,23.40
2019-02-21T22:35:20.887Z,23.11
2019-02-21T22:37:50.385Z,22.84
2019-02-21T22:40:19.930Z,22.49
2019-02-21T22:42:49.582Z,22.44
2019-02-21T22:45:19.199Z,22.49
2019-02-21T22:47:48.774Z,22.43
2019-02-21T22:50:19.278Z,22.30
2019-02-21T22:52:48.756Z,22.28
2019-02-21T22:55:18.554Z,22.13
2019-02-21T22:57:48.131Z,21.98
2019-02-21T23:01:00.985Z,21.89
2019-02-21T23:03:54.093Z,21.70
2019-02-21T23:06:53.333Z,21.63
2019-02-21T23:09:27.848Z,21.53
2019-02-21T23:11:56.251Z,21.41
2019-02-21T23:14:25.879Z,21.27
2019-02-21T23:16:55.376Z,21.07
2019-02-21T23:19:25.002Z,20.92
2019-02-21T23:21:54.609Z,20.74
2019-02-21T23:24:24.152Z,20.55
2019-02-21T23:26:53.655Z,20.46
2019-02-21T23:29:23.130Z,20.35
2019-02-21T23:31:52.658Z,20.24
2019-02-21T23:34:39.244Z,20.15
2019-02-21T23:37:08.786Z,20.10
2019-02-21T23:39:38.814Z,20.07
2019-02-21T23:42:08.527Z,20.01
2019-02-21T23:44:38.089Z,19.99
2019-02-21T23:47:07.592Z,19.96
2019-02-21T23:49:37.114Z,19.95
2019-02-21T23:52:06.618Z,19.92
2019-02-21T23:54:36.269Z,19.89
2019-02-21T23:57:05.815Z,19.83
2019-02-21T23:59:35.275Z,19.82
